Avery, Oklahoma
Current Conditions -  °F | °C
As of 1:15 PM on Thursday 18 Dec 2014 (Local Time) from KCUH Reporting Station
Overcast Overcast  
Wind Chill: 41°   Ceiling: 700
Heat Index: 41°   Visibility: 10mi
Dew Point: 41°   Wind: 0mph
Humidity: 100%   Direction: NA
Pressure: 30.16"   Gusts: NA
Location:  35.9968°N, 96.7376°W
Report Text: KCUH 181915Z AUTO 00000KT 10SM OVC007 05/05 A3016 RMK AO2
Loading
Personal Weather Stations






























Interactive Weather Map New forecast layout! Learn more

10-Day Weather Forecast

Advertisements
Track Severe Weather on mobile